Time;durP1;ratioP1;P1;durP2;ratioP2;P2;SDS_P1;SDS_P2;PMS_P1;PMS_P2;Temp;Humidity;BMP_temperature;BMP_pressure;BME280_temperature;BME280_humidity;BME280_pressure;Samples;Min_cycle;Max_cycle;Signal;HPM_P1;HPM_P2
2022/12/06 00:01:38;;;;;;;22.73;12.43;;;1.30;99.90;;;;;;5051936;28;20463;-55
2022/12/06 00:04:07;;;;;;;22.93;12.77;;;1.20;99.90;;;;;;5052087;28;20444;-58
2022/12/06 00:06:38;;;;;;;28.27;12.67;;;1.20;99.90;;;;;;5051796;28;20840;-55
2022/12/06 00:09:05;;;;;;;24.70;13.63;;;1.20;99.90;;;;;;5051798;28;20476;-54
2022/12/06 00:11:33;;;;;;;25.87;12.40;;;1.20;99.90;;;;;;5051658;28;20457;-56
2022/12/06 00:14:03;;;;;;;26.53;12.73;;;1.20;99.90;;;;;;5044124;28;20451;-52
2022/12/06 00:16:31;;;;;;;25.93;13.60;;;1.30;99.90;;;;;;5051696;28;20506;-58
2022/12/06 00:18:58;;;;;;;29.80;13.60;;;1.30;99.90;;;;;;5051268;28;20459;-54
2022/12/06 00:21:27;;;;;;;27.83;13.73;;;1.30;99.90;;;;;;5051334;28;20458;-55
2022/12/06 00:23:58;;;;;;;28.67;14.10;;;1.20;99.90;;;;;;5051107;28;20452;-56
2022/12/06 00:26:25;;;;;;;35.07;14.60;;;1.30;99.90;;;;;;5052902;28;20490;-56
2022/12/06 00:28:53;;;;;;;28.90;13.93;;;1.40;99.90;;;;;;5055095;28;20448;-59
2022/12/06 00:31:23;;;;;;;28.27;13.40;;;1.30;99.90;;;;;;5054706;28;20462;-57
2022/12/06 00:33:50;;;;;;;42.30;15.10;;;1.30;99.90;;;;;;5054579;28;20978;-57
2022/12/06 00:36:19;;;;;;;32.57;14.60;;;1.30;99.90;;;;;;5054423;28;20564;-53
2022/12/06 00:38:47;;;;;;;42.37;15.83;;;1.30;99.90;;;;;;5054530;28;20462;-56
2022/12/06 00:41:17;;;;;;;33.93;14.50;;;1.30;99.90;;;;;;5054520;28;20544;-57
2022/12/06 00:43:44;;;;;;;42.83;14.80;;;1.40;99.90;;;;;;5054761;28;20539;-57
2022/12/06 00:46:14;;;;;;;35.90;14.27;;;1.50;99.90;;;;;;5054233;28;20473;-55
2022/12/06 00:48:41;;;;;;;46.63;14.33;;;1.40;99.90;;;;;;5054502;28;20459;-58
2022/12/06 00:51:08;;;;;;;41.63;15.37;;;1.50;99.90;;;;;;5054256;28;20832;-58
2022/12/06 00:53:34;;;;;;;29.47;14.70;;;1.50;99.90;;;;;;5054167;28;20463;-58
2022/12/06 00:56:02;;;;;;;46.70;14.30;;;1.50;99.90;;;;;;5053993;28;20517;-57
2022/12/06 00:58:30;;;;;;;36.57;14.87;;;1.50;99.90;;;;;;5054361;28;20443;-58
2022/12/06 01:01:07;;;;;;;59.60;15.23;;;1.50;99.90;;;;;;5054079;28;20547;-57
2022/12/06 01:03:34;;;;;;;32.77;13.80;;;1.50;99.90;;;;;;5054244;28;20452;-55
2022/12/06 01:06:04;;;;;;;48.90;15.47;;;1.40;99.90;;;;;;5053847;28;20476;-59
2022/12/06 01:08:30;;;;;;;53.03;14.57;;;1.40;99.90;;;;;;5054329;28;20462;-58
2022/12/06 01:10:57;;;;;;;50.43;15.30;;;1.40;99.90;;;;;;5053734;28;20459;-58
2022/12/06 01:13:24;;;;;;;43.50;13.73;;;1.50;99.90;;;;;;5053479;28;20824;-53
2022/12/06 01:15:53;;;;;;;70.70;14.93;;;1.50;99.90;;;;;;5045316;28;21136;-57
2022/12/06 01:18:20;;;;;;;41.60;16.00;;;1.50;99.90;;;;;;5045427;28;20954;-57
2022/12/06 01:20:47;;;;;;;54.10;15.87;;;1.50;99.90;;;;;;5043666;28;20449;-57
2022/12/06 01:23:14;;;;;;;55.43;14.10;;;1.40;99.90;;;;;;5047755;28;20498;-57
2022/12/06 01:25:49;;;;;;;60.10;15.50;;;1.50;99.90;;;;;;5053629;28;20469;-53
2022/12/06 01:28:16;;;;;;;43.90;14.33;;;1.40;99.90;;;;;;5053545;28;20997;-57
2022/12/06 01:30:42;;;;;;;39.57;13.70;;;1.60;99.90;;;;;;5053456;28;20460;-58
2022/12/06 01:33:10;;;;;;;59.10;13.70;;;1.50;99.90;;;;;;5053447;28;20447;-56
2022/12/06 01:35:39;;;;;;;38.00;13.67;;;1.50;99.90;;;;;;5053384;28;20484;-54
2022/12/06 01:38:06;;;;;;;37.07;13.50;;;1.50;99.90;;;;;;5052159;28;20455;-57
2022/12/06 01:40:37;;;;;;;31.70;14.30;;;1.60;99.90;;;;;;5053695;28;20452;-55
2022/12/06 01:43:04;;;;;;;39.10;13.87;;;1.60;99.90;;;;;;5053408;28;20484;-58
2022/12/06 01:45:31;;;;;;;35.17;14.07;;;1.60;99.90;;;;;;5053061;28;21018;-55
2022/12/06 01:47:58;;;;;;;38.30;13.60;;;1.60;99.90;;;;;;5053157;28;20947;-57
2022/12/06 01:50:29;;;;;;;41.70;14.30;;;1.60;99.90;;;;;;5053332;28;20467;-57
2022/12/06 01:53:00;;;;;;;33.60;14.00;;;1.70;99.90;;;;;;5053520;28;20453;-56
2022/12/06 01:55:29;;;;;;;29.33;12.83;;;1.70;99.90;;;;;;5053172;28;20487;-57
2022/12/06 01:58:00;;;;;;;30.87;13.50;;;1.70;99.90;;;;;;5052789;28;20943;-57
2022/12/06 02:00:27;;;;;;;40.87;13.57;;;1.70;99.90;;;;;;5053159;28;20456;-57
2022/12/06 02:02:55;;;;;;;42.77;13.30;;;1.70;99.90;;;;;;5053193;28;20452;-55
2022/12/06 02:05:22;;;;;;;36.63;14.47;;;1.80;99.90;;;;;;5052791;28;20854;-56
2022/12/06 02:07:50;;;;;;;36.13;14.10;;;1.70;99.90;;;;;;5052714;28;20578;-55
2022/12/06 02:10:18;;;;;;;39.50;14.73;;;1.70;99.90;;;;;;5052674;28;20455;-57
2022/12/06 02:12:45;;;;;;;38.17;14.13;;;1.80;99.90;;;;;;5052666;28;20452;-58
2022/12/06 02:15:11;;;;;;;46.93;15.37;;;1.70;99.90;;;;;;5052712;28;20875;-54
2022/12/06 02:17:45;;;;;;;34.93;14.93;;;1.80;99.90;;;;;;5052539;28;20444;-57
2022/12/06 02:20:25;;;;;;;51.77;14.77;;;1.80;99.90;;;;;;5052773;28;20475;-57
2022/12/06 02:23:23;;;;;;;36.40;13.30;;;1.80;99.90;;;;;;5052481;28;20946;-58
2022/12/06 02:26:21;;;;;;;76.03;15.90;;;1.80;99.90;;;;;;5052525;28;20514;-55
2022/12/06 02:29:16;;;;;;;43.57;13.93;;;1.80;99.90;;;;;;5052691;28;20827;-57
2022/12/06 02:31:53;;;;;;;41.87;15.07;;;1.70;99.90;;;;;;5052444;28;20456;-55
2022/12/06 02:34:25;;;;;;;48.03;16.77;;;1.70;99.90;;;;;;5052612;28;20501;-56
2022/12/06 02:37:00;;;;;;;46.57;16.57;;;1.70;99.90;;;;;;5051832;28;20978;-57
2022/12/06 02:39:32;;;;;;;43.67;16.70;;;1.60;99.90;;;;;;5052283;28;20513;-55
2022/12/06 02:42:03;;;;;;;52.47;15.57;;;1.60;99.90;;;;;;5052444;28;20533;-52
2022/12/06 02:44:34;;;;;;;54.43;15.00;;;1.70;99.90;;;;;;5052214;28;20448;-55
2022/12/06 02:47:06;;;;;;;55.10;13.60;;;1.70;99.90;;;;;;5051922;28;20522;-53
2022/12/06 02:49:35;;;;;;;37.83;13.60;;;1.70;99.90;;;;;;5051878;28;20448;-55
2022/12/06 02:52:02;;;;;;;57.00;15.03;;;1.60;99.90;;;;;;5051865;28;20463;-56
2022/12/06 02:54:30;;;;;;;36.17;13.80;;;1.70;99.90;;;;;;5052327;28;20459;-58
2022/12/06 02:56:57;;;;;;;44.43;12.87;;;1.70;99.90;;;;;;5051682;28;20549;-55
2022/12/06 02:59:24;;;;;;;48.13;12.83;;;1.70;99.90;;;;;;5052165;28;20448;-55
2022/12/06 03:01:55;;;;;;;53.13;13.23;;;1.70;99.90;;;;;;5051848;28;20958;-58
2022/12/06 03:04:45;;;;;;;35.13;12.67;;;1.70;99.90;;;;;;5051983;28;20865;-57
2022/12/06 03:07:32;;;;;;;40.40;12.73;;;1.60;99.90;;;;;;5051492;28;20472;-56
2022/12/06 03:10:21;;;;;;;35.80;12.53;;;1.70;99.90;;;;;;5051995;28;20444;-55
2022/12/06 03:12:55;;;;;;;54.43;13.63;;;1.70;99.90;;;;;;5051601;28;20820;-57
2022/12/06 03:15:33;;;;;;;45.87;13.10;;;1.70;99.90;;;;;;5051581;28;21135;-56
2022/12/06 03:18:03;;;;;;;38.97;13.00;;;1.70;99.90;;;;;;5051568;28;20463;-54
2022/12/06 03:20:41;;;;;;;62.77;13.37;;;1.70;99.90;;;;;;5051762;28;20455;-52
2022/12/06 03:23:11;;;;;;;63.97;13.87;;;1.80;99.90;;;;;;5051657;28;20462;-55
2022/12/06 03:25:39;;;;;;;60.20;14.03;;;1.70;99.90;;;;;;5051819;28;20472;-55
2022/12/06 03:28:08;;;;;;;45.13;12.77;;;1.70;99.90;;;;;;5051339;28;21061;-55
2022/12/06 03:30:35;;;;;;;57.97;13.97;;;1.80;99.90;;;;;;5051703;28;20456;-54
2022/12/06 03:33:03;;;;;;;64.60;12.97;;;1.80;99.90;;;;;;5051640;28;20539;-57
2022/12/06 03:35:34;;;;;;;71.93;14.43;;;1.80;99.90;;;;;;5051475;28;20484;-55
2022/12/06 03:38:06;;;;;;;75.57;14.07;;;1.80;99.90;;;;;;5051078;28;20943;-58
2022/12/06 03:40:36;;;;;;;67.07;12.87;;;1.80;99.90;;;;;;5051734;28;20447;-56
2022/12/06 03:43:04;;;;;;;76.30;14.27;;;1.80;99.90;;;;;;5051469;28;20451;-57
2022/12/06 03:45:37;;;;;;;37.20;13.70;;;1.80;99.90;;;;;;5051434;28;20467;-51
2022/12/06 03:48:10;;;;;;;46.83;12.23;;;1.90;99.90;;;;;;5051450;28;20456;-57
2022/12/06 03:50:42;;;;;;;63.23;13.90;;;1.90;99.90;;;;;;5052024;28;20437;-57
2022/12/06 03:53:09;;;;;;;51.57;13.57;;;1.90;99.90;;;;;;5052032;28;20452;-57
2022/12/06 03:55:36;;;;;;;94.23;15.07;;;2.00;99.90;;;;;;5051620;28;20570;-59
2022/12/06 03:58:02;;;;;;;71.30;13.70;;;2.00;99.90;;;;;;5051255;28;20558;-55
2022/12/06 04:00:29;;;;;;;64.23;13.10;;;2.00;99.90;;;;;;5051693;28;20505;-57
2022/12/06 04:02:56;;;;;;;90.70;13.67;;;2.00;99.90;;;;;;5055142;28;20447;-53
2022/12/06 04:05:22;;;;;;;68.20;14.80;;;2.00;99.90;;;;;;5055334;28;20887;-55
2022/12/06 04:07:50;;;;;;;74.60;15.07;;;2.00;99.90;;;;;;5054786;28;20482;-57
2022/12/06 04:10:17;;;;;;;35.00;12.43;;;2.10;99.90;;;;;;5055243;28;20444;-56
2022/12/06 04:13:04;;;;;;;85.83;14.50;;;2.10;99.90;;;;;;5055005;28;20811;-54
2022/12/06 04:15:33;;;;;;;76.67;14.00;;;2.10;99.90;;;;;;5054815;28;20479;-54
2022/12/06 04:18:15;;;;;;;73.77;15.10;;;2.10;99.90;;;;;;5055021;28;20455;-56
2022/12/06 04:23:32;;;;;;;90.53;14.73;;;2.10;99.90;;;;;;5054930;28;20502;-54
2022/12/06 04:25:58;;;;;;;65.80;14.13;;;2.20;99.90;;;;;;5054542;28;20456;-53
2022/12/06 04:39:24;;;;;;;79.60;14.60;;;2.30;99.90;;;;;;5054734;28;20428;-52
2022/12/06 04:44:36;;;;;;;54.50;14.20;;;2.30;99.90;;;;;;5054208;28;20984;-53
2022/12/06 04:47:03;;;;;;;23.43;13.13;;;2.30;99.90;;;;;;5054443;28;20471;-52
2022/12/06 04:49:30;;;;;;;66.80;13.93;;;2.40;99.90;;;;;;5054465;28;20799;-54
2022/12/06 04:51:57;;;;;;;81.67;13.80;;;2.40;99.90;;;;;;5054391;28;20448;-51
2022/12/06 04:54:25;;;;;;;74.97;13.87;;;2.40;99.90;;;;;;5054390;28;20457;-52
2022/12/06 04:56:52;;;;;;;94.57;14.70;;;2.40;99.90;;;;;;5053755;28;20486;-55
2022/12/06 04:59:20;;;;;;;31.90;12.10;;;2.40;99.90;;;;;;5054083;28;20452;-52
2022/12/06 05:01:46;;;;;;;91.87;14.00;;;2.40;99.90;;;;;;5054469;28;20892;-53
2022/12/06 05:04:13;;;;;;;26.93;12.77;;;2.50;99.90;;;;;;5054156;28;20455;-55
2022/12/06 05:06:40;;;;;;;53.80;13.47;;;2.50;99.90;;;;;;5053904;28;20460;-55
2022/12/06 05:09:07;;;;;;;62.00;13.70;;;2.40;99.90;;;;;;5053964;28;20875;-56
2022/12/06 05:11:35;;;;;;;44.00;14.23;;;2.50;99.90;;;;;;5053742;28;20451;-57
2022/12/06 05:14:02;;;;;;;83.90;14.17;;;2.50;99.90;;;;;;5052754;28;20198;-58
2022/12/06 05:16:29;;;;;;;98.90;14.60;;;2.50;99.90;;;;;;5053727;28;20491;-56
2022/12/06 05:18:56;;;;;;;131.57;16.60;;;2.50;99.90;;;;;;5053896;28;20517;-52
2022/12/06 05:21:24;;;;;;;83.57;14.30;;;2.60;99.90;;;;;;5053842;28;20452;-54
2022/12/06 05:23:53;;;;;;;138.13;16.57;;;2.60;99.90;;;;;;5053701;28;20456;-54
2022/12/06 05:26:21;;;;;;;49.77;13.53;;;2.50;99.90;;;;;;5053240;28;20479;-53
2022/12/06 05:28:49;;;;;;;94.53;15.03;;;2.50;99.90;;;;;;5053808;28;20475;-56
2022/12/06 05:31:17;;;;;;;93.17;15.03;;;2.60;99.90;;;;;;5053517;28;20699;-52
2022/12/06 05:33:44;;;;;;;68.67;14.80;;;2.60;99.90;;;;;;5053748;28;20452;-54
2022/12/06 05:36:12;;;;;;;148.10;17.37;;;2.50;99.90;;;;;;5053075;28;21010;-51
2022/12/06 05:38:39;;;;;;;146.27;16.23;;;2.50;99.90;;;;;;5053311;28;20955;-53
2022/12/06 05:41:08;;;;;;;54.23;15.17;;;2.50;99.90;;;;;;5053759;28;20232;-56
2022/12/06 05:43:34;;;;;;;95.57;16.57;;;2.60;99.90;;;;;;5053446;28;20448;-51
2022/12/06 05:46:03;;;;;;;117.57;16.90;;;2.60;99.90;;;;;;5052869;28;20978;-57
2022/12/06 05:48:30;;;;;;;111.80;17.20;;;2.60;99.90;;;;;;5053377;28;20217;-58
2022/12/06 05:50:56;;;;;;;56.60;15.50;;;2.60;99.90;;;;;;5053285;28;20634;-52
2022/12/06 05:53:23;;;;;;;63.87;15.97;;;2.60;99.90;;;;;;5053147;28;20592;-54
2022/12/06 05:55:50;;;;;;;100.00;16.80;;;2.60;99.90;;;;;;5053090;28;20906;-55
2022/12/06 05:58:17;;;;;;;122.20;16.33;;;2.60;99.90;;;;;;5053001;28;20456;-55
2022/12/06 06:00:47;;;;;;;39.53;14.10;;;2.60;99.90;;;;;;5052892;28;20454;-56
2022/12/06 06:03:15;;;;;;;138.23;17.73;;;2.60;99.90;;;;;;5053067;28;20453;-56
2022/12/06 06:05:46;;;;;;;153.53;17.43;;;2.60;99.90;;;;;;5052690;28;20475;-58
2022/12/06 06:08:14;;;;;;;100.43;15.27;;;2.60;99.90;;;;;;5052938;28;20658;-53
2022/12/06 06:10:40;;;;;;;175.67;18.47;;;2.60;99.90;;;;;;5052999;28;20455;-55
2022/12/06 06:13:07;;;;;;;129.93;17.20;;;2.60;99.90;;;;;;5052790;28;20825;-52
2022/12/06 06:15:34;;;;;;;58.23;14.10;;;2.70;99.90;;;;;;5052531;28;20280;-56
2022/12/06 06:18:01;;;;;;;46.13;14.30;;;2.70;99.90;;;;;;5052482;28;20201;-59
2022/12/06 06:20:29;;;;;;;111.17;16.27;;;2.60;99.90;;;;;;5052355;28;20448;-57
2022/12/06 06:22:55;;;;;;;88.93;15.00;;;2.70;99.90;;;;;;5052885;28;20449;-57
2022/12/06 06:25:22;;;;;;;59.03;14.87;;;2.70;99.90;;;;;;5051607;28;21001;-57
2022/12/06 06:27:49;;;;;;;126.00;16.40;;;2.70;99.90;;;;;;5052317;28;20222;-57
2022/12/06 06:30:16;;;;;;;37.70;13.23;;;2.70;99.90;;;;;;5052380;28;20676;-57
2022/12/06 06:32:43;;;;;;;58.93;14.60;;;2.70;99.90;;;;;;5052372;28;20449;-55
2022/12/06 06:35:10;;;;;;;89.93;14.70;;;2.70;99.90;;;;;;5052120;28;20453;-57
2022/12/06 06:37:38;;;;;;;71.40;14.70;;;2.80;99.90;;;;;;5052032;28;20236;-56
2022/12/06 06:40:06;;;;;;;58.80;14.63;;;2.80;99.90;;;;;;5052003;28;20509;-56
2022/12/06 06:42:33;;;;;;;74.17;15.20;;;2.80;99.90;;;;;;5052133;28;20202;-56
2022/12/06 06:45:00;;;;;;;50.80;14.33;;;2.70;99.90;;;;;;5043838;28;20688;-57
2022/12/06 06:47:26;;;;;;;65.40;14.80;;;2.70;99.90;;;;;;5051823;28;20564;-53
2022/12/06 06:49:53;;;;;;;38.13;12.43;;;2.70;99.90;;;;;;5052162;28;20955;-57
2022/12/06 06:52:20;;;;;;;62.57;14.03;;;2.80;99.90;;;;;;5052164;28;20570;-55
2022/12/06 06:54:48;;;;;;;38.17;12.87;;;2.80;99.90;;;;;;5052066;28;20476;-54
2022/12/06 06:57:14;;;;;;;34.87;12.47;;;2.80;99.90;;;;;;5051657;28;20233;-57
2022/12/06 06:59:41;;;;;;;33.80;12.30;;;2.80;99.90;;;;;;5051804;28;20456;-56
2022/12/06 07:02:11;;;;;;;46.60;13.63;;;2.90;99.90;;;;;;5051618;28;20842;-55
2022/12/06 07:04:38;;;;;;;60.83;13.10;;;2.90;99.90;;;;;;5052172;28;20451;-57
2022/12/06 07:07:05;;;;;;;108.47;14.03;;;2.80;99.90;;;;;;5051694;28;20468;-56
2022/12/06 07:09:31;;;;;;;96.60;14.77;;;2.90;99.90;;;;;;5051971;28;20452;-57
2022/12/06 07:11:59;;;;;;;105.47;13.87;;;2.90;99.90;;;;;;5051903;28;20207;-58
2022/12/06 07:14:26;;;;;;;102.00;14.60;;;2.90;99.90;;;;;;5051627;28;20198;-58
2022/12/06 07:16:52;;;;;;;86.60;14.50;;;2.90;99.90;;;;;;5051219;28;20595;-54
2022/12/06 07:19:19;;;;;;;55.43;13.97;;;2.90;99.90;;;;;;5052207;28;20690;-56
2022/12/06 07:21:46;;;;;;;71.23;14.27;;;3.00;99.90;;;;;;5051904;28;20594;-59
2022/12/06 07:24:12;;;;;;;98.30;15.70;;;3.00;99.90;;;;;;5051926;28;20449;-56
2022/12/06 07:26:39;;;;;;;83.40;14.73;;;3.00;99.90;;;;;;5051423;28;20496;-52
2022/12/06 07:29:07;;;;;;;149.40;16.63;;;3.10;99.90;;;;;;5051606;28;20833;-58
2022/12/06 07:31:34;;;;;;;267.17;19.57;;;3.00;99.90;;;;;;5051601;28;20452;-58
2022/12/06 07:34:02;;;;;;;98.90;15.17;;;3.00;99.90;;;;;;5051657;28;20958;-54
2022/12/06 07:36:30;;;;;;;134.30;16.47;;;3.00;99.90;;;;;;5053349;28;20225;-56
2022/12/06 07:38:59;;;;;;;151.50;16.00;;;3.00;99.90;;;;;;5055683;28;20691;-53
2022/12/06 07:47:09;;;;;;;103.73;16.20;;;3.10;99.90;;;;;;4993945;28;20657;-56
2022/12/06 07:49:36;;;;;;;106.00;16.13;;;3.10;99.90;;;;;;5040454;28;20834;-54
2022/12/06 07:52:03;;;;;;;63.43;15.00;;;3.20;99.90;;;;;;5055165;28;20677;-58
2022/12/06 07:54:29;;;;;;;131.27;17.60;;;3.20;99.90;;;;;;5055766;28;20215;-56
2022/12/06 07:56:56;;;;;;;195.47;19.37;;;3.20;99.90;;;;;;5055183;28;20515;-55
2022/12/06 07:59:24;;;;;;;146.80;17.97;;;3.30;99.90;;;;;;5055438;28;20265;-55
2022/12/06 08:01:51;;;;;;;83.60;16.57;;;3.30;99.90;;;;;;5055359;28;20207;-53
2022/12/06 08:04:19;;;;;;;122.23;17.83;;;3.30;99.90;;;;;;5055092;28;20291;-51
2022/12/06 08:06:46;;;;;;;125.83;18.90;;;3.30;99.90;;;;;;5054931;28;20270;-53
2022/12/06 08:09:13;;;;;;;242.70;22.07;;;3.30;99.90;;;;;;5055076;28;20257;-52
2022/12/06 08:11:39;;;;;;;172.57;19.23;;;3.30;99.90;;;;;;5055089;28;20682;-54
2022/12/06 08:14:06;;;;;;;254.17;21.07;;;3.40;99.90;;;;;;5054879;28;20203;-57
2022/12/06 08:16:34;;;;;;;200.23;20.27;;;3.40;99.90;;;;;;5054622;28;20891;-54
2022/12/06 08:19:01;;;;;;;84.83;16.77;;;3.40;99.90;;;;;;5054944;28;20863;-49
2022/12/06 08:21:28;;;;;;;91.97;18.07;;;3.40;99.90;;;;;;5054944;28;20210;-53
2022/12/06 08:23:55;;;;;;;45.17;15.00;;;3.40;99.90;;;;;;5055131;28;20208;-56
2022/12/06 08:26:22;;;;;;;46.00;17.53;;;3.40;99.90;;;;;;5054700;28;20772;-55
2022/12/06 08:28:50;;;;;;;37.83;15.90;;;3.50;99.90;;;;;;5054823;28;20220;-51
2022/12/06 08:31:18;;;;;;;94.43;17.40;;;3.50;99.90;;;;;;5054739;28;20262;-51
2022/12/06 08:33:46;;;;;;;195.50;20.03;;;3.50;99.90;;;;;;5054587;28;20598;-56
2022/12/06 08:36:16;;;;;;;34.60;15.27;;;3.50;99.90;;;;;;5054423;28;20239;-53
2022/12/06 08:38:44;;;;;;;117.87;18.97;;;3.60;99.90;;;;;;5054531;28;20223;-55
2022/12/06 08:43:52;;;;;;;34.00;14.77;;;3.60;99.90;;;;;;5053311;28;20196;-56
2022/12/06 08:46:19;;;;;;;126.37;19.33;;;3.60;99.90;;;;;;5053705;28;20740;-54
2022/12/06 08:48:47;;;;;;;176.50;20.63;;;3.50;99.90;;;;;;5054377;28;20451;-53
2022/12/06 08:51:13;;;;;;;82.93;18.27;;;3.50;99.90;;;;;;5054553;28;20273;-52
2022/12/06 08:53:40;;;;;;;111.27;19.17;;;3.60;99.90;;;;;;5054028;28;20219;-57
2022/12/06 08:56:07;;;;;;;56.60;16.60;;;3.60;99.90;;;;;;5054146;28;20290;-54
2022/12/06 08:58:34;;;;;;;57.20;16.93;;;3.70;99.90;;;;;;5053883;28;20221;-56
2022/12/06 09:01:00;;;;;;;72.63;17.60;;;3.70;99.90;;;;;;5054129;28;20227;-56
2022/12/06 09:03:27;;;;;;;43.17;16.83;;;3.80;99.90;;;;;;5054351;28;20212;-57
2022/12/06 09:05:55;;;;;;;34.80;16.37;;;3.80;99.90;;;;;;5054129;28;20239;-56
2022/12/06 09:08:22;;;;;;;42.73;17.87;;;3.80;99.90;;;;;;5054047;28;20239;-56
2022/12/06 09:10:48;;;;;;;33.50;15.63;;;3.80;99.90;;;;;;5054015;28;20208;-57
2022/12/06 09:13:15;;;;;;;34.90;16.90;;;3.90;99.90;;;;;;5053559;28;20210;-56
2022/12/06 09:15:42;;;;;;;33.60;16.17;;;3.90;99.90;;;;;;5053940;28;20219;-53
2022/12/06 09:18:08;;;;;;;60.30;16.43;;;4.00;99.90;;;;;;5053626;28;20281;-53
2022/12/06 09:20:39;;;;;;;31.97;14.07;;;4.00;99.90;;;;;;5053961;28;20264;-55
2022/12/06 09:23:07;;;;;;;30.47;14.13;;;4.00;99.90;;;;;;5053856;28;20261;-56
2022/12/06 09:25:34;;;;;;;26.20;13.13;;;4.00;99.90;;;;;;5053688;28;20236;-54
2022/12/06 09:28:01;;;;;;;42.27;15.23;;;4.00;99.90;;;;;;5053216;28;20212;-54
2022/12/06 09:30:27;;;;;;;20.60;12.10;;;4.00;99.90;;;;;;5053742;28;20208;-59
2022/12/06 09:32:54;;;;;;;23.07;12.47;;;4.00;99.90;;;;;;5053582;28;20629;-59
2022/12/06 09:35:21;;;;;;;29.17;14.67;;;4.00;99.90;;;;;;5053452;28;20634;-57
2022/12/06 09:37:48;;;;;;;24.33;13.13;;;4.10;99.90;;;;;;5053121;28;20278;-57
2022/12/06 09:40:21;;;;;;;23.77;12.20;;;4.20;99.90;;;;;;5053434;28;20208;-59
2022/12/06 09:43:03;;;;;;;31.33;12.50;;;4.20;99.90;;;;;;5053248;28;20197;-55
2022/12/06 09:46:05;;;;;;;21.50;11.50;;;4.20;99.90;;;;;;5053322;28;20232;-57
2022/12/06 09:49:04;;;;;;;23.53;11.43;;;4.20;99.90;;;;;;5053196;28;20224;-57
2022/12/06 09:51:45;;;;;;;25.37;11.73;;;4.20;99.90;;;;;;5053458;28;20589;-54
2022/12/06 09:54:25;;;;;;;24.37;11.43;;;4.20;99.90;;;;;;5053183;28;20209;-59
2022/12/06 09:57:00;;;;;;;23.97;10.83;;;4.30;99.90;;;;;;5052929;28;20286;-53
2022/12/06 09:59:37;;;;;;;17.93;10.53;;;4.30;99.90;;;;;;5052242;28;20219;-54
2022/12/06 10:02:23;;;;;;;21.27;10.40;;;4.30;99.90;;;;;;5053223;28;20617;-59
2022/12/06 10:05:22;;;;;;;17.03;9.40;;;4.30;99.90;;;;;;5053101;28;20209;-57
2022/12/06 10:07:58;;;;;;;20.07;9.47;;;4.30;99.90;;;;;;5052770;28;20646;-53
2022/12/06 10:10:36;;;;;;;18.23;10.07;;;4.40;99.90;;;;;;5053024;28;20253;-55
2022/12/06 10:13:12;;;;;;;17.33;9.27;;;4.40;99.90;;;;;;5052402;28;20208;-53
2022/12/06 10:15:52;;;;;;;16.97;9.30;;;4.40;99.90;;;;;;5052568;28;20223;-54
2022/12/06 10:18:34;;;;;;;20.67;10.60;;;4.40;99.90;;;;;;5052997;28;20264;-49
2022/12/06 10:21:11;;;;;;;17.40;9.67;;;4.40;99.90;;;;;;5052757;28;20224;-53
2022/12/06 10:23:51;;;;;;;17.10;9.63;;;4.30;99.90;;;;;;5052605;28;20707;-57
2022/12/06 10:26:27;;;;;;;19.63;11.07;;;4.30;99.90;;;;;;5052137;28;20232;-53
2022/12/06 10:29:04;;;;;;;25.10;11.40;;;4.30;99.90;;;;;;5052354;28;20207;-55
2022/12/06 10:31:41;;;;;;;19.93;12.10;;;4.30;99.90;;;;;;5052699;28;20209;-52
2022/12/06 10:34:19;;;;;;;23.03;12.37;;;4.30;99.90;;;;;;5052552;28;20216;-55
2022/12/06 10:36:57;;;;;;;20.57;10.70;;;4.30;99.90;;;;;;5051557;28;20714;-52
2022/12/06 10:39:31;;;;;;;22.00;10.57;;;4.40;99.90;;;;;;5052591;28;20586;-57
2022/12/06 10:42:04;;;;;;;17.23;9.03;;;4.50;99.90;;;;;;5052345;28;20201;-53
2022/12/06 10:44:37;;;;;;;20.97;9.73;;;4.50;99.90;;;;;;5052024;28;20270;-55
2022/12/06 10:47:07;;;;;;;18.67;9.37;;;4.50;99.90;;;;;;5051833;28;20229;-55
2022/12/06 10:49:41;;;;;;;20.47;9.73;;;4.50;99.90;;;;;;5052469;28;20202;-56
2022/12/06 10:52:24;;;;;;;21.90;10.57;;;4.60;99.90;;;;;;5052609;28;20205;-53
2022/12/06 10:55:02;;;;;;;21.87;10.73;;;4.70;99.90;;;;;;5052137;28;20216;-54
2022/12/06 10:57:37;;;;;;;19.67;10.07;;;4.60;99.90;;;;;;5051826;28;20663;-58
2022/12/06 11:00:13;;;;;;;19.73;10.60;;;4.60;99.90;;;;;;5051885;28;20258;-54
2022/12/06 11:02:46;;;;;;;25.00;11.13;;;4.60;99.90;;;;;;5052310;28;20250;-52
2022/12/06 11:05:18;;;;;;;21.87;11.73;;;4.60;99.90;;;;;;5051999;28;20664;-52
2022/12/06 11:07:48;;;;;;;21.80;11.43;;;4.70;99.90;;;;;;5051661;28;20212;-56
2022/12/06 11:10:20;;;;;;;20.60;11.07;;;4.80;99.90;;;;;;5051826;28;20212;-53
2022/12/06 11:12:48;;;;;;;21.13;10.80;;;4.80;99.90;;;;;;5051891;28;20296;-54
2022/12/06 11:15:22;;;;;;;22.33;12.00;;;4.70;99.90;;;;;;5051665;28;20730;-53
2022/12/06 11:17:52;;;;;;;23.20;11.43;;;4.80;99.90;;;;;;5041388;28;20222;-56
2022/12/06 11:20:26;;;;;;;18.83;11.27;;;4.90;99.90;;;;;;5032400;28;20280;-53
2022/12/06 11:23:04;;;;;;;20.43;11.13;;;4.80;99.90;;;;;;5035880;28;20202;-55
2022/12/06 11:25:41;;;;;;;22.60;11.03;;;4.90;99.90;;;;;;5043490;28;20220;-54
2022/12/06 11:28:20;;;;;;;19.77;10.27;;;4.90;99.90;;;;;;5045023;28;20399;-57
2022/12/06 11:30:51;;;;;;;18.13;10.40;;;4.90;99.90;;;;;;5052457;28;20223;-53
2022/12/06 11:33:20;;;;;;;20.43;11.10;;;5.00;99.90;;;;;;5052337;28;20228;-54
2022/12/06 11:35:47;;;;;;;20.43;11.77;;;5.00;99.90;;;;;;5051799;28;20602;-56
2022/12/06 11:38:15;;;;;;;21.90;11.77;;;5.10;99.90;;;;;;5051329;28;20225;-56
2022/12/06 11:40:44;;;;;;;23.07;11.87;;;5.20;99.90;;;;;;5051470;28;20209;-53
2022/12/06 11:43:15;;;;;;;21.87;10.43;;;5.20;99.90;;;;;;5051519;28;20615;-55
2022/12/06 11:45:44;;;;;;;22.37;11.03;;;5.10;99.90;;;;;;5051227;28;20236;-53
2022/12/06 11:48:16;;;;;;;20.67;11.83;;;5.10;99.90;;;;;;5051746;28;20215;-55
2022/12/06 11:50:44;;;;;;;21.47;11.47;;;5.10;99.90;;;;;;5051443;28;20675;-54
2022/12/06 11:53:17;;;;;;;20.77;12.07;;;5.10;99.90;;;;;;5051836;28;20213;-51
2022/12/06 11:55:47;;;;;;;21.90;12.27;;;5.10;99.90;;;;;;5051609;28;20229;-56
2022/12/06 11:58:19;;;;;;;22.10;11.93;;;5.10;99.90;;;;;;5051478;28;20731;-57
2022/12/06 12:00:58;;;;;;;20.27;11.97;;;5.20;99.90;;;;;;5052046;28;20205;-56
2022/12/06 12:03:32;;;;;;;17.67;10.83;;;5.20;99.90;;;;;;5051575;28;20206;-56
2022/12/06 12:06:15;;;;;;;25.17;11.90;;;5.30;99.90;;;;;;5051050;28;20378;-56
2022/12/06 12:08:52;;;;;;;23.07;11.53;;;5.30;99.90;;;;;;5051600;28;20259;-54
2022/12/06 12:11:21;;;;;;;17.87;10.43;;;5.20;99.90;;;;;;5051216;28;20259;-50
2022/12/06 12:13:51;;;;;;;20.13;11.53;;;5.10;99.90;;;;;;5051154;28;20225;-57
2022/12/06 12:16:22;;;;;;;19.67;12.20;;;5.10;99.90;;;;;;5050627;28;20721;-56
2022/12/06 12:18:54;;;;;;;20.70;12.10;;;5.10;99.90;;;;;;5050871;28;20222;-56
2022/12/06 12:21:34;;;;;;;26.27;13.37;;;5.00;99.90;;;;;;5050899;28;20265;-58
2022/12/06 12:24:02;;;;;;;23.93;13.00;;;4.90;99.90;;;;;;5055100;28;20212;-54
2022/12/06 12:26:38;;;;;;;23.03;12.93;;;4.90;99.90;;;;;;5054348;28;20236;-54
2022/12/06 12:29:16;;;;;;;25.57;13.47;;;5.00;99.90;;;;;;5054646;28;20588;-54
2022/12/06 12:31:54;;;;;;;22.90;12.63;;;5.00;99.90;;;;;;5054505;28;20263;-55
2022/12/06 12:34:28;;;;;;;18.20;10.37;;;5.10;99.90;;;;;;5046501;28;20208;-56
2022/12/06 12:36:57;;;;;;;19.87;11.13;;;5.10;99.90;;;;;;5046025;28;20237;-52
2022/12/06 12:39:37;;;;;;;18.73;9.90;;;5.10;99.90;;;;;;5053035;28;20222;-56
2022/12/06 12:42:05;;;;;;;18.90;9.80;;;5.00;99.90;;;;;;5049278;28;20601;-56
2022/12/06 12:44:33;;;;;;;20.37;9.73;;;5.00;99.90;;;;;;5053727;28;20207;-59
2022/12/06 12:47:02;;;;;;;18.17;9.83;;;5.00;99.90;;;;;;5048076;28;20652;-61
2022/12/06 12:49:32;;;;;;;16.90;9.27;;;5.00;99.90;;;;;;5048552;28;20198;-58
2022/12/06 12:52:00;;;;;;;12.20;7.73;;;4.90;99.90;;;;;;5044583;28;20201;-59
2022/12/06 12:54:30;;;;;;;11.50;7.03;;;4.80;99.90;;;;;;5052458;28;20260;-60
2022/12/06 12:56:58;;;;;;;13.07;7.47;;;4.70;99.90;;;;;;5052862;28;20230;-60
2022/12/06 12:59:27;;;;;;;11.67;6.70;;;4.60;99.90;;;;;;5052714;28;20235;-61
2022/12/06 13:01:57;;;;;;;11.10;5.87;;;4.50;99.90;;;;;;5053584;28;20208;-62
2022/12/06 13:04:40;;;;;;;11.40;7.03;;;4.50;99.90;;;;;;5053261;28;20216;-59
2022/12/06 13:07:14;;;;;;;10.63;6.00;;;4.40;99.90;;;;;;5051762;28;20252;-59
2022/12/06 13:09:46;;;;;;;8.40;5.40;;;4.50;99.90;;;;;;5053097;28;20208;-64
2022/12/06 13:12:17;;;;;;;13.00;7.47;;;4.60;99.90;;;;;;5052107;28;20228;-62
2022/12/06 13:14:52;;;;;;;14.97;7.07;;;4.70;99.90;;;;;;5052356;28;20262;-63
2022/12/06 13:17:20;;;;;;;11.47;7.20;;;4.80;99.90;;;;;;5050120;28;20733;-62